sensor_id;sensor_type;location;lat;lon;timestamp;pressure;altitude;pressure_sealevel;temperature;humidity
33949;BME280;20229;49.856;19.030;2023-03-16T00:01:29;101837.86;;;1.32;77.31
33949;BME280;20229;49.856;19.030;2023-03-16T00:06:42;101841.45;;;1.42;77.51
33949;BME280;20229;49.856;19.030;2023-03-16T00:11:57;101854.00;;;1.52;77.34
33949;BME280;20229;49.856;19.030;2023-03-16T00:17:14;101855.77;;;1.58;77.85
33949;BME280;20229;49.856;19.030;2023-03-16T00:22:31;101864.74;;;1.61;78.46
33949;BME280;20229;49.856;19.030;2023-03-16T00:27:45;101873.72;;;1.66;77.96
33949;BME280;20229;49.856;19.030;2023-03-16T00:33:00;101862.92;;;1.73;77.79
33949;BME280;20229;49.856;19.030;2023-03-16T00:38:18;101869.20;;;1.76;77.59
33949;BME280;20229;49.856;19.030;2023-03-16T00:43:34;101867.39;;;1.80;77.99
33949;BME280;20229;49.856;19.030;2023-03-16T00:48:56;101865.63;;;1.80;77.83
33949;BME280;20229;49.856;19.030;2023-03-16T00:54:09;101878.19;;;1.81;77.88
33949;BME280;20229;49.856;19.030;2023-03-16T00:59:25;101871.02;;;1.77;78.17
33949;BME280;20229;49.856;19.030;2023-03-16T01:04:40;101876.39;;;1.68;78.37
33949;BME280;20229;49.856;19.030;2023-03-16T01:09:53;101878.19;;;1.58;78.31
33949;BME280;20229;49.856;19.030;2023-03-16T01:15:09;101877.30;;;1.52;78.58
33949;BME280;20229;49.856;19.030;2023-03-16T01:20:23;101883.61;;;1.38;78.29
33949;BME280;20229;49.856;19.030;2023-03-16T01:25:37;101895.25;;;1.28;78.92
33949;BME280;20229;49.856;19.030;2023-03-16T01:30:52;101897.92;;;1.16;79.29
33949;BME280;20229;49.856;19.030;2023-03-16T01:36:13;101898.81;;;1.03;79.60
33949;BME280;20229;49.856;19.030;2023-03-16T01:41:28;101911.32;;;0.90;79.85
33949;BME280;20229;49.856;19.030;2023-03-16T01:46:42;101903.22;;;0.79;80.75
33949;BME280;20229;49.856;19.030;2023-03-16T01:52:06;101906.73;;;0.63;80.54
33949;BME280;20229;49.856;19.030;2023-03-16T01:57:26;101904.02;;;0.52;80.49
33949;BME280;20229;49.856;19.030;2023-03-16T02:02:56;101912.94;;;0.40;80.67
33949;BME280;20229;49.856;19.030;2023-03-16T02:08:10;101904.82;;;0.25;81.52
33949;BME280;20229;49.856;19.030;2023-03-16T02:13:26;101919.09;;;0.15;81.48
33949;BME280;20229;49.856;19.030;2023-03-16T02:18:49;101913.65;;;0.06;81.00
33949;BME280;20229;49.856;19.030;2023-03-16T02:24:05;101928.78;;;-0.04;81.62
33949;BME280;20229;49.856;19.030;2023-03-16T02:34:46;101939.43;;;-0.21;82.01
33949;BME280;20229;49.856;19.030;2023-03-16T02:40:12;101950.99;;;-0.25;81.95
33949;BME280;20229;49.856;19.030;2023-03-16T02:45:25;101958.09;;;-0.33;82.07
33949;BME280;20229;49.856;19.030;2023-03-16T02:50:46;101969.70;;;-0.39;83.05
33949;BME280;20229;49.856;19.030;2023-03-16T02:56:01;101981.27;;;-0.44;83.00
33949;BME280;20229;49.856;19.030;2023-03-16T03:01:15;101996.39;;;-0.51;83.19
33949;BME280;20229;49.856;19.030;2023-03-16T03:06:29;101992.75;;;-0.58;82.85
33949;BME280;20229;49.856;19.030;2023-03-16T03:11:45;101999.87;;;-0.61;83.27
33949;BME280;20229;49.856;19.030;2023-03-16T03:16:59;102005.16;;;-0.69;83.68
33949;BME280;20229;49.856;19.030;2023-03-16T03:22:13;102007.77;;;-0.75;83.85
33949;BME280;20229;49.856;19.030;2023-03-16T03:27:30;102005.90;;;-0.82;83.75
33949;BME280;20229;49.856;19.030;2023-03-16T03:32:45;102004.93;;;-0.89;84.17
33949;BME280;20229;49.856;19.030;2023-03-16T03:37:59;102021.82;;;-0.96;84.66
33949;BME280;20229;49.856;19.030;2023-03-16T03:43:14;102036.16;;;-0.92;84.23
33949;BME280;20229;49.856;19.030;2023-03-16T03:48:28;102046.84;;;-0.96;84.04
33949;BME280;20229;49.856;19.030;2023-03-16T03:53:43;102047.68;;;-1.01;85.54
33949;BME280;20229;49.856;19.030;2023-03-16T03:58:56;102055.59;;;-1.12;85.15
33949;BME280;20229;49.856;19.030;2023-03-16T04:04:11;102055.50;;;-1.18;84.86
33949;BME280;20229;49.856;19.030;2023-03-16T04:09:25;102059.08;;;-1.19;85.04
33949;BME280;20229;49.856;19.030;2023-03-16T04:14:39;102054.52;;;-1.25;84.94
33949;BME280;20229;49.856;19.030;2023-03-16T04:19:53;102065.13;;;-1.34;85.60
33949;BME280;20229;49.856;19.030;2023-03-16T04:25:08;102074.85;;;-1.40;85.36
33949;BME280;20229;49.856;19.030;2023-03-16T04:30:22;102064.93;;;-1.46;85.46
33949;BME280;20229;49.856;19.030;2023-03-16T04:35:36;102069.29;;;-1.53;85.38
33949;BME280;20229;49.856;19.030;2023-03-16T04:40:50;102081.74;;;-1.56;85.37
33949;BME280;20229;49.856;19.030;2023-03-16T04:46:05;102087.08;;;-1.58;85.54
33949;BME280;20229;49.856;19.030;2023-03-16T04:51:19;102083.47;;;-1.60;85.95
33949;BME280;20229;49.856;19.030;2023-03-16T04:56:35;102078.06;;;-1.63;86.31
33949;BME280;20229;49.856;19.030;2023-03-16T05:01:48;102082.46;;;-1.66;86.53
33949;BME280;20229;49.856;19.030;2023-03-16T05:07:04;102078.84;;;-1.70;86.26
33949;BME280;20229;49.856;19.030;2023-03-16T05:12:19;102094.05;;;-1.69;86.25
33949;BME280;20229;49.856;19.030;2023-03-16T05:17:33;102101.31;;;-1.62;86.93
33949;BME280;20229;49.856;19.030;2023-03-16T05:22:48;102096.86;;;-1.60;87.49
33949;BME280;20229;49.856;19.030;2023-03-16T05:28:02;102108.61;;;-1.52;86.91
33949;BME280;20229;49.856;19.030;2023-03-16T05:33:18;102114.13;;;-1.39;87.36
33949;BME280;20229;49.856;19.030;2023-03-16T05:38:32;102114.55;;;-1.10;87.83
33949;BME280;20229;49.856;19.030;2023-03-16T05:43:46;102119.54;;;-0.71;88.32
33949;BME280;20229;49.856;19.030;2023-03-16T05:49:00;102113.65;;;-0.42;87.67
33949;BME280;20229;49.856;19.030;2023-03-16T05:54:14;102120.02;;;-0.31;87.11
33949;BME280;20229;49.856;19.030;2023-03-16T05:59:28;102124.58;;;-0.22;87.40
33949;BME280;20229;49.856;19.030;2023-03-16T06:04:42;102130.91;;;-0.14;87.33
33949;BME280;20229;49.856;19.030;2023-03-16T06:09:57;102139.13;;;0.01;86.75
33949;BME280;20229;49.856;19.030;2023-03-16T06:15:11;102148.20;;;0.14;86.89
33949;BME280;20229;49.856;19.030;2023-03-16T06:20:25;102153.81;;;0.40;87.34
33949;BME280;20229;49.856;19.030;2023-03-16T06:25:39;102157.52;;;0.56;86.41
33949;BME280;20229;49.856;19.030;2023-03-16T06:30:55;102162.86;;;0.53;85.71
33949;BME280;20229;49.856;19.030;2023-03-16T06:36:09;102168.23;;;0.53;85.92
33949;BME280;20229;49.856;19.030;2023-03-16T06:41:24;102166.69;;;0.82;87.09
33949;BME280;20229;49.856;19.030;2023-03-16T06:46:38;102175.85;;;1.13;85.12
33949;BME280;20229;49.856;19.030;2023-03-16T06:51:51;102177.78;;;1.43;84.39
33949;BME280;20229;49.856;19.030;2023-03-16T06:57:06;102176.17;;;1.88;84.89
33949;BME280;20229;49.856;19.030;2023-03-16T07:02:21;102180.77;;;2.45;82.48
33949;BME280;20229;49.856;19.030;2023-03-16T07:07:42;102187.04;;;2.80;81.41
33949;BME280;20229;49.856;19.030;2023-03-16T07:12:56;102190.54;;;3.28;80.25
33949;BME280;20229;49.856;19.030;2023-03-16T07:18:12;102192.87;;;4.13;78.66
33949;BME280;20229;49.856;19.030;2023-03-16T07:23:27;102190.35;;;7.01;73.97
33949;BME280;20229;49.856;19.030;2023-03-16T07:28:41;102179.73;;;12.50;58.90
33949;BME280;20229;49.856;19.030;2023-03-16T07:33:57;102194.09;;;11.87;53.15
33949;BME280;20229;49.856;19.030;2023-03-16T07:39:14;102199.62;;;9.66;58.33
33949;BME280;20229;49.856;19.030;2023-03-16T07:44:31;102200.07;;;8.82;60.08
33949;BME280;20229;49.856;19.030;2023-03-16T07:49:45;102209.25;;;8.78;61.99
33949;BME280;20229;49.856;19.030;2023-03-16T07:55:00;102202.05;;;10.06;56.56
33949;BME280;20229;49.856;19.030;2023-03-16T08:00:17;102205.12;;;10.25;56.12
33949;BME280;20229;49.856;19.030;2023-03-16T08:05:38;102201.94;;;10.40;57.33
33949;BME280;20229;49.856;19.030;2023-03-16T08:10:53;102209.94;;;11.53;53.03
33949;BME280;20229;49.856;19.030;2023-03-16T08:16:12;102218.48;;;10.90;53.54
33949;BME280;20229;49.856;19.030;2023-03-16T08:21:27;102223.25;;;11.37;54.10
33949;BME280;20229;49.856;19.030;2023-03-16T08:26:42;102225.67;;;11.46;52.52
33949;BME280;20229;49.856;19.030;2023-03-16T08:31:57;102216.34;;;11.77;51.40
33949;BME280;20229;49.856;19.030;2023-03-16T08:37:14;102220.19;;;11.21;50.85
33949;BME280;20229;49.856;19.030;2023-03-16T08:42:29;102229.27;;;10.67;51.54
33949;BME280;20229;49.856;19.030;2023-03-16T08:47:48;102234.36;;;9.90;53.27
33949;BME280;20229;49.856;19.030;2023-03-16T08:53:04;102227.23;;;10.16;56.19
33949;BME280;20229;49.856;19.030;2023-03-16T08:58:18;102219.94;;;10.74;53.97
33949;BME280;20229;49.856;19.030;2023-03-16T09:03:34;102233.21;;;10.58;53.38
33949;BME280;20229;49.856;19.030;2023-03-16T09:08:55;102236.29;;;10.47;53.94
33949;BME280;20229;49.856;19.030;2023-03-16T09:14:10;102239.90;;;10.48;54.31
33949;BME280;20229;49.856;19.030;2023-03-16T09:19:24;102248.97;;;10.19;52.87
33949;BME280;20229;49.856;19.030;2023-03-16T09:24:39;102250.00;;;10.46;54.60
33949;BME280;20229;49.856;19.030;2023-03-16T09:31:05;102255.67;;;10.68;50.52
33949;BME280;20229;49.856;19.030;2023-03-16T09:36:31;102246.80;;;10.88;52.93
33949;BME280;20229;49.856;19.030;2023-03-16T09:47:12;102244.66;;;10.41;51.17
33949;BME280;20229;49.856;19.030;2023-03-16T09:58:00;102259.73;;;10.55;50.16
33949;BME280;20229;49.856;19.030;2023-03-16T10:03:25;102255.82;;;10.34;51.54
33949;BME280;20229;49.856;19.030;2023-03-16T10:08:43;102270.41;;;10.01;51.55
33949;BME280;20229;49.856;19.030;2023-03-16T10:14:09;102277.92;;;9.93;50.95
33949;BME280;20229;49.856;19.030;2023-03-16T10:30:30;102273.38;;;9.92;50.69
33949;BME280;20229;49.856;19.030;2023-03-16T10:41:28;102272.71;;;9.84;48.07
33949;BME280;20229;49.856;19.030;2023-03-16T10:46:50;102281.93;;;9.80;50.37
33949;BME280;20229;49.856;19.030;2023-03-16T10:57:40;102277.96;;;9.25;50.96
33949;BME280;20229;49.856;19.030;2023-03-16T11:02:55;102274.21;;;9.29;51.27
33949;BME280;20229;49.856;19.030;2023-03-16T11:08:14;102267.43;;;9.45;53.89
33949;BME280;20229;49.856;19.030;2023-03-16T11:13:34;102270.60;;;9.63;53.33
33949;BME280;20229;49.856;19.030;2023-03-16T11:35:56;102267.39;;;10.42;49.11
33949;BME280;20229;49.856;19.030;2023-03-16T11:41:30;102265.68;;;10.39;48.38
33949;BME280;20229;49.856;19.030;2023-03-16T12:09:16;102237.34;;;10.43;46.40
33949;BME280;20229;49.856;19.030;2023-03-16T12:14:39;102254.21;;;9.95;43.69
33949;BME280;20229;49.856;19.030;2023-03-16T12:20:06;102246.87;;;9.66;46.04
33949;BME280;20229;49.856;19.030;2023-03-16T12:25:52;102246.64;;;9.41;46.99
33949;BME280;20229;49.856;19.030;2023-03-16T12:31:13;102243.55;;;9.21;45.94
33949;BME280;20229;49.856;19.030;2023-03-16T12:42:14;102240.41;;;9.36;47.79
33949;BME280;20229;49.856;19.030;2023-03-16T12:52:55;102246.25;;;9.88;46.30
33949;BME280;20229;49.856;19.030;2023-03-16T12:58:09;102256.52;;;9.78;46.88
33949;BME280;20229;49.856;19.030;2023-03-16T13:03:26;102249.73;;;9.62;45.32
33949;BME280;20229;49.856;19.030;2023-03-16T13:08:52;102254.82;;;9.41;46.38
33949;BME280;20229;49.856;19.030;2023-03-16T13:25:56;102257.92;;;8.92;47.24
33949;BME280;20229;49.856;19.030;2023-03-16T13:31:01;102256.08;;;9.28;47.71
33949;BME280;20229;49.856;19.030;2023-03-16T13:36:16;102248.17;;;9.19;46.24
33949;BME280;20229;49.856;19.030;2023-03-16T13:41:31;102254.88;;;9.04;46.22
33949;BME280;20229;49.856;19.030;2023-03-16T13:46:47;102259.76;;;8.91;46.73
33949;BME280;20229;49.856;19.030;2023-03-16T13:57:50;102247.52;;;8.72;47.10
33949;BME280;20229;49.856;19.030;2023-03-16T14:08:42;102246.74;;;8.67;47.39
33949;BME280;20229;49.856;19.030;2023-03-16T14:14:12;102241.13;;;8.34;47.65
33949;BME280;20229;49.856;19.030;2023-03-16T14:19:25;102241.98;;;8.37;47.45
33949;BME280;20229;49.856;19.030;2023-03-16T14:24:56;102241.93;;;8.39;45.78
33949;BME280;20229;49.856;19.030;2023-03-16T14:30:19;102238.30;;;8.37;46.19
33949;BME280;20229;49.856;19.030;2023-03-16T14:35:42;102240.75;;;8.51;46.80
33949;BME280;20229;49.856;19.030;2023-03-16T14:40:57;102240.55;;;8.58;45.17
33949;BME280;20229;49.856;19.030;2023-03-16T14:51:43;102241.44;;;8.98;44.07
33949;BME280;20229;49.856;19.030;2023-03-16T14:57:01;102237.72;;;9.00;45.81
33949;BME280;20229;49.856;19.030;2023-03-16T15:02:22;102249.95;;;8.84;45.02
33949;BME280;20229;49.856;19.030;2023-03-16T15:07:41;102246.80;;;8.64;44.87
33949;BME280;20229;49.856;19.030;2023-03-16T15:12:58;102253.52;;;8.49;44.73
33949;BME280;20229;49.856;19.030;2023-03-16T15:18:23;102253.79;;;8.35;44.75
33949;BME280;20229;49.856;19.030;2023-03-16T15:23:38;102248.66;;;8.21;46.21
33949;BME280;20229;49.856;19.030;2023-03-16T15:28:53;102249.73;;;8.12;44.97
33949;BME280;20229;49.856;19.030;2023-03-16T15:34:13;102247.23;;;8.03;44.83
33949;BME280;20229;49.856;19.030;2023-03-16T15:39:27;102243.91;;;7.87;44.90
33949;BME280;20229;49.856;19.030;2023-03-16T15:44:41;102254.23;;;7.72;45.21
33949;BME280;20229;49.856;19.030;2023-03-16T15:49:55;102265.42;;;7.55;45.57
33949;BME280;20229;49.856;19.030;2023-03-16T15:55:16;102263.89;;;7.40;46.29
33949;BME280;20229;49.856;19.030;2023-03-16T16:00:35;102256.77;;;7.33;47.48
33949;BME280;20229;49.856;19.030;2023-03-16T16:05:49;102258.89;;;7.15;47.92
33949;BME280;20229;49.856;19.030;2023-03-16T16:11:15;102268.21;;;6.99;48.07
33949;BME280;20229;49.856;19.030;2023-03-16T16:16:30;102260.42;;;6.78;48.48
33949;BME280;20229;49.856;19.030;2023-03-16T16:21:46;102272.42;;;6.64;49.00
33949;BME280;20229;49.856;19.030;2023-03-16T16:27:00;102278.09;;;6.46;50.02
33949;BME280;20229;49.856;19.030;2023-03-16T16:32:21;102278.34;;;6.28;51.08
33949;BME280;20229;49.856;19.030;2023-03-16T16:37:37;102279.59;;;6.02;51.73
33949;BME280;20229;49.856;19.030;2023-03-16T16:42:52;102290.66;;;5.79;52.85
33949;BME280;20229;49.856;19.030;2023-03-16T16:53:32;102302.02;;;5.30;54.71
33949;BME280;20229;49.856;19.030;2023-03-16T16:58:45;102303.15;;;5.03;55.32
33949;BME280;20229;49.856;19.030;2023-03-16T17:04:01;102306.88;;;4.84;56.04
33949;BME280;20229;49.856;19.030;2023-03-16T17:09:16;102308.87;;;4.60;56.76
33949;BME280;20229;49.856;19.030;2023-03-16T17:14:30;102310.79;;;4.37;57.59
33949;BME280;20229;49.856;19.030;2023-03-16T17:19:45;102317.20;;;4.16;58.54
33949;BME280;20229;49.856;19.030;2023-03-16T17:25:00;102314.54;;;4.02;58.79
33949;BME280;20229;49.856;19.030;2023-03-16T17:30:21;102311.01;;;3.89;59.09
33949;BME280;20229;49.856;19.030;2023-03-16T17:35:35;102319.15;;;3.75;59.82
33949;BME280;20229;49.856;19.030;2023-03-16T17:40:52;102317.39;;;3.54;60.12
33949;BME280;20229;49.856;19.030;2023-03-16T17:46:08;102326.39;;;3.38;60.56
33949;BME280;20229;49.856;19.030;2023-03-16T17:51:22;102319.20;;;3.17;61.72
33949;BME280;20229;49.856;19.030;2023-03-16T17:56:39;102321.90;;;2.96;61.81
33949;BME280;20229;49.856;19.030;2023-03-16T18:01:53;102323.66;;;2.75;62.76
33949;BME280;20229;49.856;19.030;2023-03-16T18:07:11;102325.45;;;2.55;62.98
33949;BME280;20229;49.856;19.030;2023-03-16T18:12:27;102327.18;;;2.39;63.65
33949;BME280;20229;49.856;19.030;2023-03-16T18:17:41;102345.13;;;2.26;64.34
33949;BME280;20229;49.856;19.030;2023-03-16T18:23:00;102344.12;;;2.07;64.52
33949;BME280;20229;49.856;19.030;2023-03-16T18:28:15;102353.94;;;1.98;64.76
33949;BME280;20229;49.856;19.030;2023-03-16T18:33:38;102348.48;;;1.82;65.33
33949;BME280;20229;49.856;19.030;2023-03-16T18:38:54;102346.58;;;1.66;65.94
33949;BME280;20229;49.856;19.030;2023-03-16T18:49:36;102360.73;;;1.37;67.04
33949;BME280;20229;49.856;19.030;2023-03-16T18:54:51;102365.13;;;1.25;67.15
33949;BME280;20229;49.856;19.030;2023-03-16T19:00:06;102380.24;;;1.12;68.10
33949;BME280;20229;49.856;19.030;2023-03-16T19:05:25;102386.38;;;0.99;68.47
33949;BME280;20229;49.856;19.030;2023-03-16T19:10:52;102377.30;;;0.87;68.43
33949;BME280;20229;49.856;19.030;2023-03-16T19:16:17;102381.68;;;0.75;69.26
33949;BME280;20229;49.856;19.030;2023-03-16T19:21:31;102394.10;;;0.65;69.65
33949;BME280;20229;49.856;19.030;2023-03-16T19:26:45;102383.24;;;0.56;69.65
33949;BME280;20229;49.856;19.030;2023-03-16T19:32:00;102392.12;;;0.48;70.60
33949;BME280;20229;49.856;19.030;2023-03-16T19:37:15;102396.51;;;0.40;70.22
33949;BME280;20229;49.856;19.030;2023-03-16T19:42:31;102403.59;;;0.35;70.21
33949;BME280;20229;49.856;19.030;2023-03-16T19:47:51;102402.59;;;0.27;70.16
33949;BME280;20229;49.856;19.030;2023-03-16T19:58:33;102408.81;;;0.23;70.26
33949;BME280;20229;49.856;19.030;2023-03-16T20:03:49;102410.61;;;0.24;69.29
33949;BME280;20229;49.856;19.030;2023-03-16T20:09:05;102410.70;;;0.30;69.49
33949;BME280;20229;49.856;19.030;2023-03-16T20:14:29;102421.58;;;0.41;68.97
33949;BME280;20229;49.856;19.030;2023-03-16T20:19:44;102417.19;;;0.47;68.74
33949;BME280;20229;49.856;19.030;2023-03-16T20:24:57;102405.64;;;0.56;69.11
33949;BME280;20229;49.856;19.030;2023-03-16T20:30:18;102411.95;;;0.60;69.02
33949;BME280;20229;49.856;19.030;2023-03-16T20:35:31;102403.93;;;0.63;68.51
33949;BME280;20229;49.856;19.030;2023-03-16T20:40:49;102405.77;;;0.67;68.16
33949;BME280;20229;49.856;19.030;2023-03-16T20:46:04;102409.42;;;0.72;67.93
33949;BME280;20229;49.856;19.030;2023-03-16T20:51:19;102402.25;;;0.71;68.16
33949;BME280;20229;49.856;19.030;2023-03-16T20:56:33;102408.52;;;0.73;68.34
33949;BME280;20229;49.856;19.030;2023-03-16T21:01:47;102410.35;;;0.77;67.63
33949;BME280;20229;49.856;19.030;2023-03-16T21:07:05;102421.19;;;0.82;67.55
33949;BME280;20229;49.856;19.030;2023-03-16T21:12:34;102412.18;;;0.78;67.61
33949;BME280;20229;49.856;19.030;2023-03-16T21:17:44;102405.03;;;0.80;68.02
33949;BME280;20229;49.856;19.030;2023-03-16T21:22:58;102405.03;;;0.80;68.29
33949;BME280;20229;49.856;19.030;2023-03-16T21:28:13;102410.40;;;0.80;68.12
33949;BME280;20229;49.856;19.030;2023-03-16T21:33:36;102407.70;;;0.79;68.02
33949;BME280;20229;49.856;19.030;2023-03-16T21:38:52;102398.75;;;0.78;68.65
33949;BME280;20229;49.856;19.030;2023-03-16T21:44:06;102399.65;;;0.80;68.28
33949;BME280;20229;49.856;19.030;2023-03-16T21:49:21;102412.18;;;0.78;68.23
33949;BME280;20229;49.856;19.030;2023-03-16T21:54:36;102408.52;;;0.73;68.39
33949;BME280;20229;49.856;19.030;2023-03-16T21:59:50;102403.19;;;0.76;68.34
33949;BME280;20229;49.856;19.030;2023-03-16T22:10:29;102414.83;;;0.77;68.22
33949;BME280;20229;49.856;19.030;2023-03-16T22:15:44;102411.26;;;0.75;68.80
33949;BME280;20229;49.856;19.030;2023-03-16T22:21:00;102404.08;;;0.75;68.23
33949;BME280;20229;49.856;19.030;2023-03-16T22:26:18;102398.67;;;0.72;68.78
33949;BME280;20229;49.856;19.030;2023-03-16T22:31:34;102396.84;;;0.69;68.42
33949;BME280;20229;49.856;19.030;2023-03-16T22:36:51;102390.49;;;0.63;68.80
33949;BME280;20229;49.856;19.030;2023-03-16T22:47:30;102385.96;;;0.57;69.15
33949;BME280;20229;49.856;19.030;2023-03-16T22:52:54;102383.24;;;0.56;69.20
33949;BME280;20229;49.856;19.030;2023-03-16T22:58:23;102385.89;;;0.53;68.92
33949;BME280;20229;49.856;19.030;2023-03-16T23:03:31;102382.30;;;0.51;69.46
33949;BME280;20229;49.856;19.030;2023-03-16T23:08:46;102369.71;;;0.46;70.05
33949;BME280;20229;49.856;19.030;2023-03-16T23:14:00;102368.70;;;0.38;69.62
33949;BME280;20229;49.856;19.030;2023-03-16T23:19:21;102351.60;;;0.32;69.61
33949;BME280;20229;49.856;19.030;2023-03-16T23:24:39;102354.24;;;0.27;69.57
33949;BME280;20229;49.856;19.030;2023-03-16T23:29:54;102353.27;;;0.20;70.26
33949;BME280;20229;49.856;19.030;2023-03-16T23:35:17;102343.41;;;0.18;70.40
33949;BME280;20229;49.856;19.030;2023-03-16T23:40:35;102346.91;;;0.14;69.98
33949;BME280;20229;49.856;19.030;2023-03-16T23:45:50;102346.01;;;0.12;70.09
33949;BME280;20229;49.856;19.030;2023-03-16T23:51:05;102357.64;;;0.11;70.09
33949;BME280;20229;49.856;19.030;2023-03-16T23:56:19;102355.81;;;0.08;70.15
